Time;durP1;ratioP1;P1;durP2;ratioP2;P2;SDS_P1;SDS_P2;PMS_P1;PMS_P2;Temp;Humidity;BMP_temperature;BMP_pressure;BME280_temperature;BME280_humidity;BME280_pressure;Samples;Min_cycle;Max_cycle;Signal;HPM_P1;HPM_P2
2024/02/13 00:00:16;;;;;;;1.03;0.70;;;4.90;99.90;;;;;;5051868;23;20168;-93
2024/02/13 00:02:23;;;;;;;3.83;1.17;;;4.80;99.90;;;;;;5076558;23;20158;-92
2024/02/13 00:04:32;;;;;;;5.50;1.67;;;4.80;99.90;;;;;;5051973;23;20162;-92
2024/02/13 00:06:33;;;;;;;2.10;1.00;;;4.70;99.90;;;;;;5050366;23;20192;-92
2024/02/13 00:08:50;;;;;;;1.80;0.97;;;4.70;99.90;;;;;;5073988;23;20176;-94
2024/02/13 00:11:06;;;;;;;1.53;1.17;;;4.70;99.90;;;;;;5077451;23;20198;-92
2024/02/13 00:13:08;;;;;;;4.80;1.27;;;4.70;99.90;;;;;;5071525;23;20153;-93
2024/02/13 00:15:19;;;;;;;5.30;1.20;;;4.60;99.90;;;;;;5049407;23;20170;-93
2024/02/13 00:17:31;;;;;;;3.17;0.93;;;4.80;99.90;;;;;;5072340;23;20201;-92
2024/02/13 00:19:42;;;;;;;2.30;1.10;;;4.80;99.90;;;;;;5050380;23;20241;-95
2024/02/13 00:21:48;;;;;;;7.93;1.60;;;4.90;99.90;;;;;;5072497;23;20154;-93
2024/02/13 00:24:00;;;;;;;1.93;1.10;;;5.00;99.90;;;;;;5073910;23;20196;-94
2024/02/13 00:26:09;;;;;;;1.40;0.90;;;5.10;99.90;;;;;;5073417;23;20164;-94
2024/02/13 00:28:22;;;;;;;2.00;0.97;;;5.30;99.90;;;;;;5072744;23;20170;-93
2024/02/13 00:30:26;;;;;;;9.10;1.53;;;5.30;99.90;;;;;;5048307;23;20142;-94
2024/02/13 00:32:31;;;;;;;3.67;1.87;;;5.30;99.90;;;;;;5047662;23;20225;-94
2024/02/13 00:34:44;;;;;;;2.53;0.70;;;5.30;99.90;;;;;;5099102;23;20164;-93
2024/02/13 00:36:51;;;;;;;2.63;0.90;;;5.30;99.90;;;;;;5072364;23;20158;-92
2024/02/13 00:39:03;;;;;;;6.10;1.00;;;5.30;99.90;;;;;;5048870;23;20171;-94
2024/02/13 00:41:09;;;;;;;1.87;0.80;;;5.10;99.90;;;;;;5049494;23;20245;-93
2024/02/13 00:43:17;;;;;;;1.73;0.80;;;5.10;99.90;;;;;;5072762;23;20498;-93
2024/02/13 00:45:27;;;;;;;1.37;0.67;;;5.20;99.90;;;;;;5077740;23;20133;-94
2024/02/13 00:47:29;;;;;;;3.23;0.80;;;5.20;99.90;;;;;;5073788;23;20620;-93
2024/02/13 00:49:40;;;;;;;1.73;1.07;;;5.30;99.90;;;;;;5046854;23;20151;-94
2024/02/13 00:51:58;;;;;;;2.40;1.13;;;5.10;99.90;;;;;;5030552;23;20213;-93
2024/02/13 00:54:06;;;;;;;6.67;1.97;;;5.00;99.90;;;;;;5072699;23;20184;-94
2024/02/13 00:56:11;;;;;;;2.23;0.97;;;5.00;99.90;;;;;;5050884;23;20209;-93
2024/02/13 00:58:32;;;;;;;1.70;0.70;;;5.00;99.90;;;;;;5072707;23;20173;-92
2024/02/13 01:00:34;;;;;;;5.60;1.00;;;4.90;99.90;;;;;;5073559;23;20161;-93
2024/02/13 01:02:39;;;;;;;7.30;0.93;;;4.80;99.90;;;;;;5073672;23;20136;-93
2024/02/13 01:04:40;;;;;;;3.40;0.60;;;4.80;99.90;;;;;;5049281;23;20162;-93
2024/02/13 01:06:46;;;;;;;2.67;0.70;;;4.70;99.90;;;;;;5072029;23;20154;-94
2024/02/13 01:08:50;;;;;;;5.10;0.90;;;4.80;99.90;;;;;;5047942;23;20186;-94
2024/02/13 01:10:52;;;;;;;2.17;0.60;;;4.70;99.90;;;;;;5048851;23;20205;-93
2024/02/13 01:12:54;;;;;;;0.83;0.60;;;4.60;99.90;;;;;;5051130;23;20162;-95
2024/02/13 01:14:59;;;;;;;2.30;0.80;;;4.60;99.90;;;;;;5075662;23;20162;-94
2024/02/13 01:17:00;;;;;;;1.03;0.63;;;4.80;99.90;;;;;;5074711;23;20150;-94
2024/02/13 01:19:03;;;;;;;6.07;1.47;;;4.80;99.90;;;;;;5047193;23;20586;-94
2024/02/13 01:21:11;;;;;;;3.70;1.40;;;4.80;99.90;;;;;;5076621;23;20161;-93
2024/02/13 01:23:13;;;;;;;2.37;0.90;;;4.90;99.90;;;;;;5075475;23;20172;-94
2024/02/13 01:25:17;;;;;;;4.33;1.10;;;5.00;99.90;;;;;;5074076;23;20513;-93
2024/02/13 01:27:20;;;;;;;2.13;0.60;;;5.00;99.90;;;;;;5051011;23;20224;-94
2024/02/13 01:29:25;;;;;;;1.93;1.10;;;5.00;99.90;;;;;;5054333;23;20150;-94
2024/02/13 01:31:36;;;;;;;2.13;0.73;;;5.10;99.90;;;;;;5054494;23;20216;-94
2024/02/13 01:33:41;;;;;;;1.30;1.00;;;5.10;99.90;;;;;;5072209;23;20161;-94
2024/02/13 01:35:43;;;;;;;1.10;0.60;;;5.00;99.90;;;;;;5073663;23;20216;-93
2024/02/13 01:38:04;;;;;;;1.67;0.77;;;5.00;99.90;;;;;;5076024;23;20185;-93
2024/02/13 01:40:06;;;;;;;7.63;0.60;;;4.80;99.90;;;;;;5079494;23;20168;-93
2024/02/13 01:42:11;;;;;;;3.07;1.37;;;4.70;99.90;;;;;;5056065;23;20660;-92
2024/02/13 01:44:12;;;;;;;5.30;0.93;;;4.70;99.90;;;;;;5052916;23;20139;-94
2024/02/13 01:46:22;;;;;;;1.03;0.50;;;4.70;99.90;;;;;;5052451;23;20225;-93
2024/02/13 01:48:25;;;;;;;2.90;0.67;;;4.70;99.90;;;;;;5050632;23;20230;-93
2024/02/13 01:50:27;;;;;;;2.20;1.70;;;4.60;99.90;;;;;;5052598;23;20158;-92
2024/02/13 01:52:33;;;;;;;0.50;0.50;;;4.60;99.90;;;;;;5051365;23;20327;-93
2024/02/13 01:54:39;;;;;;;2.10;0.67;;;4.70;99.90;;;;;;5075569;23;20161;-94
2024/02/13 01:56:43;;;;;;;2.50;0.97;;;4.70;99.90;;;;;;5077707;23;20169;-94
2024/02/13 01:58:47;;;;;;;0.90;0.40;;;4.60;99.90;;;;;;5074723;23;20247;-93
2024/02/13 02:00:59;;;;;;;1.43;1.17;;;4.50;99.90;;;;;;5054633;23;20165;-93
2024/02/13 02:03:03;;;;;;;3.27;1.10;;;4.50;99.90;;;;;;5072812;23;20142;-94
2024/02/13 02:05:11;;;;;;;4.80;0.60;;;4.60;99.90;;;;;;5074856;23;20166;-93
2024/02/13 02:07:15;;;;;;;3.00;0.87;;;4.60;99.90;;;;;;5073773;23;20188;-93
2024/02/13 02:09:25;;;;;;;3.27;0.67;;;4.50;99.90;;;;;;5075490;23;20189;-92
2024/02/13 02:11:28;;;;;;;1.73;0.60;;;4.50;99.90;;;;;;5051123;23;20197;-94
2024/02/13 02:13:33;;;;;;;1.27;0.57;;;4.40;99.90;;;;;;5026557;23;20637;-92
2024/02/13 02:15:37;;;;;;;3.03;0.60;;;4.40;99.90;;;;;;5074982;23;20177;-92
2024/02/13 02:17:43;;;;;;;7.50;1.33;;;4.40;99.90;;;;;;5074398;23;20256;-93
2024/02/13 02:19:47;;;;;;;0.70;0.43;;;4.30;99.90;;;;;;5049125;23;20648;-94
2024/02/13 02:21:48;;;;;;;2.67;1.37;;;4.30;99.90;;;;;;5072435;23;20169;-93
2024/02/13 02:24:03;;;;;;;1.53;0.90;;;4.30;99.90;;;;;;5078365;23;20197;-95
2024/02/13 02:26:08;;;;;;;1.00;0.60;;;4.40;99.90;;;;;;5052057;23;20463;-93
2024/02/13 02:28:17;;;;;;;5.73;1.07;;;4.30;99.90;;;;;;5072000;23;20193;-92
2024/02/13 02:30:25;;;;;;;0.50;0.20;;;4.30;99.90;;;;;;5053573;23;20680;-92
2024/02/13 02:32:36;;;;;;;1.13;0.70;;;4.30;99.90;;;;;;5074818;23;20161;-95
2024/02/13 02:34:39;;;;;;;2.00;1.10;;;4.30;99.90;;;;;;5050515;23;20253;-94
2024/02/13 02:36:42;;;;;;;1.13;0.77;;;4.30;99.90;;;;;;5051614;23;20598;-93
2024/02/13 02:38:51;;;;;;;3.30;0.60;;;4.30;99.90;;;;;;5051940;23;20170;-93
2024/02/13 02:40:57;;;;;;;1.43;0.60;;;4.30;99.90;;;;;;5074755;23;20156;-94
2024/02/13 02:43:09;;;;;;;2.30;0.70;;;4.30;99.90;;;;;;5075579;23;20646;-93
2024/02/13 02:45:10;;;;;;;7.73;0.70;;;4.30;99.90;;;;;;5052283;23;20154;-92
2024/02/13 02:47:15;;;;;;;3.17;0.70;;;4.30;99.90;;;;;;5074467;23;20154;-93
2024/02/13 02:49:20;;;;;;;3.47;1.27;;;4.30;99.90;;;;;;5076847;23;20161;-94
2024/02/13 02:51:24;;;;;;;1.43;0.43;;;4.20;99.90;;;;;;5050712;23;20221;-93
2024/02/13 02:53:27;;;;;;;1.00;0.37;;;4.20;99.90;;;;;;5073565;23;20201;-92
2024/02/13 02:55:30;;;;;;;0.70;0.50;;;4.20;99.90;;;;;;5028574;23;20171;-93
2024/02/13 02:57:34;;;;;;;4.03;0.63;;;4.30;99.90;;;;;;5096673;23;20539;-94
2024/02/13 02:59:40;;;;;;;1.17;0.70;;;4.20;99.90;;;;;;5047879;23;20155;-93
2024/02/13 03:01:46;;;;;;;0.83;0.60;;;4.20;99.90;;;;;;5078360;23;20165;-93
2024/02/13 03:03:51;;;;;;;1.00;0.40;;;4.20;99.90;;;;;;5075219;23;20160;-93
2024/02/13 03:05:52;;;;;;;1.33;0.50;;;4.20;99.90;;;;;;5048846;23;20146;-95
2024/02/13 03:07:53;;;;;;;4.90;1.67;;;4.20;99.90;;;;;;5077446;23;20535;-94
2024/02/13 03:09:57;;;;;;;1.97;0.70;;;4.10;99.90;;;;;;5074663;23;20154;-94
2024/02/13 03:12:00;;;;;;;3.90;0.80;;;4.20;99.90;;;;;;5054330;23;20201;-92
2024/02/13 03:14:03;;;;;;;1.03;0.53;;;4.20;99.90;;;;;;5076706;23;20229;-92
2024/02/13 03:16:29;;;;;;;2.37;0.80;;;4.20;99.90;;;;;;5049731;23;20195;-92
2024/02/13 03:18:34;;;;;;;1.73;0.70;;;4.20;99.90;;;;;;5050024;23;20178;-93
2024/02/13 03:20:44;;;;;;;2.60;0.63;;;4.30;99.90;;;;;;5073144;23;20157;-93
2024/02/13 03:22:47;;;;;;;4.40;0.80;;;4.20;99.90;;;;;;5074311;23;20176;-94
2024/02/13 03:24:51;;;;;;;3.10;0.90;;;4.30;99.90;;;;;;5051620;23;20170;-94
2024/02/13 03:26:53;;;;;;;1.10;0.50;;;4.20;99.90;;;;;;5049962;23;20170;-93
2024/02/13 03:28:59;;;;;;;3.90;1.17;;;4.20;99.90;;;;;;5071954;23;20185;-93
2024/02/13 03:31:04;;;;;;;4.97;0.57;;;4.20;99.90;;;;;;5070659;23;20304;-94
2024/02/13 03:33:14;;;;;;;1.07;0.63;;;4.20;99.90;;;;;;5073881;23;20656;-92
2024/02/13 03:35:16;;;;;;;1.63;0.53;;;4.20;99.90;;;;;;5049112;23;20158;-92
2024/02/13 03:37:19;;;;;;;2.13;0.47;;;4.20;99.90;;;;;;5049310;23;20219;-94
2024/02/13 03:39:24;;;;;;;2.50;1.33;;;4.30;99.90;;;;;;5049512;23;20164;-93
2024/02/13 03:41:30;;;;;;;1.00;0.63;;;4.30;99.90;;;;;;5051429;23;20594;-92
2024/02/13 03:43:46;;;;;;;1.40;0.60;;;4.30;99.90;;;;;;5071822;23;20493;-94
2024/02/13 03:45:56;;;;;;;1.23;0.70;;;4.30;99.90;;;;;;5070776;23;20164;-93
2024/02/13 03:48:08;;;;;;;2.93;0.53;;;4.30;99.90;;;;;;5076518;23;20203;-94
2024/02/13 03:50:16;;;;;;;2.07;0.80;;;4.40;99.90;;;;;;5051530;23;20169;-95
2024/02/13 03:52:17;;;;;;;1.07;0.77;;;4.40;99.90;;;;;;5049608;23;20620;-93
2024/02/13 03:54:34;;;;;;;2.47;1.20;;;4.30;99.90;;;;;;5077718;23;20161;-93
2024/02/13 03:56:42;;;;;;;5.97;0.93;;;4.30;99.90;;;;;;5072735;23;20169;-93
2024/02/13 03:58:50;;;;;;;3.97;0.60;;;4.30;99.90;;;;;;5071361;23;20172;-92
2024/02/13 04:00:53;;;;;;;1.30;0.70;;;4.30;99.90;;;;;;5073186;23;20152;-92
2024/02/13 04:02:56;;;;;;;1.47;0.63;;;4.20;99.90;;;;;;5049389;23;20606;-94
2024/02/13 04:04:57;;;;;;;1.47;0.73;;;4.20;99.90;;;;;;5050070;23;20225;-93
2024/02/13 04:07:02;;;;;;;0.77;0.50;;;4.20;99.90;;;;;;5071715;23;20160;-93
2024/02/13 04:09:07;;;;;;;1.23;0.50;;;4.10;99.90;;;;;;5076429;23;20157;-94
2024/02/13 04:11:11;;;;;;;2.10;0.50;;;4.20;99.90;;;;;;5049780;23;20578;-93
2024/02/13 04:13:14;;;;;;;1.77;0.70;;;4.10;99.90;;;;;;5053354;23;20166;-94
2024/02/13 04:15:18;;;;;;;3.30;0.63;;;4.10;99.90;;;;;;5050954;23;20154;-94
2024/02/13 04:17:22;;;;;;;2.93;0.57;;;4.10;99.90;;;;;;5048904;23;20181;-96
2024/02/13 04:19:24;;;;;;;1.60;0.73;;;4.10;99.90;;;;;;5052379;23;20154;-93
2024/02/13 04:21:27;;;;;;;1.37;0.60;;;4.10;99.90;;;;;;5077270;23;20193;-92
2024/02/13 04:23:38;;;;;;;0.33;0.33;;;4.10;99.90;;;;;;5071648;23;20173;-93
2024/02/13 04:25:40;;;;;;;0.87;0.50;;;4.00;99.90;;;;;;5051023;23;20166;-93
2024/02/13 04:27:43;;;;;;;3.43;1.03;;;4.10;99.90;;;;;;5072801;23;20166;-94
2024/02/13 04:30:12;;;;;;;2.00;0.37;;;4.00;99.90;;;;;;5072172;23;20149;-92
2024/02/13 04:32:23;;;;;;;1.00;0.57;;;3.90;99.90;;;;;;5073866;23;20189;-94
2024/02/13 04:34:38;;;;;;;2.20;0.80;;;3.90;99.90;;;;;;5072334;23;20154;-94
2024/02/13 04:36:56;;;;;;;1.17;0.40;;;3.90;99.90;;;;;;5028592;23;20159;-93
2024/02/13 04:38:58;;;;;;;6.47;0.30;;;3.80;99.90;;;;;;5048639;23;20198;-93
2024/02/13 04:41:02;;;;;;;0.83;0.43;;;3.80;99.90;;;;;;5025576;23;20147;-93
2024/02/13 04:43:17;;;;;;;1.87;0.87;;;3.80;99.90;;;;;;5050102;23;20182;-93
2024/02/13 04:45:23;;;;;;;3.43;0.60;;;3.80;99.90;;;;;;5075073;23;20153;-94
2024/02/13 04:47:47;;;;;;;0.67;0.20;;;3.80;99.90;;;;;;5074090;23;20188;-92
2024/02/13 04:49:49;;;;;;;3.23;0.50;;;3.80;99.90;;;;;;5050145;23;20244;-92
2024/02/13 04:51:56;;;;;;;3.67;0.70;;;3.80;99.90;;;;;;5024779;23;20258;-94
2024/02/13 04:54:08;;;;;;;0.73;0.23;;;3.80;99.90;;;;;;5076997;23;20153;-92
2024/02/13 04:56:10;;;;;;;0.90;0.30;;;3.80;99.90;;;;;;5069979;23;20164;-92
2024/02/13 04:58:17;;;;;;;0.60;0.17;;;3.80;99.90;;;;;;5050170;23;20202;-92
2024/02/13 05:00:27;;;;;;;1.40;0.80;;;3.70;99.90;;;;;;5073243;23;20247;-93
2024/02/13 05:02:40;;;;;;;2.83;0.77;;;3.70;99.90;;;;;;5072705;23;20584;-94
2024/02/13 05:07:26;;;;;;;0.00;0.00;;;3.70;99.90;;;;;;5076266;23;20150;-92
2024/02/13 05:09:28;;;;;;;1.00;0.50;;;3.70;99.90;;;;;;5071701;23;20577;-92
2024/02/13 05:11:32;;;;;;;0.33;0.33;;;3.70;99.90;;;;;;5076333;23;20264;-91
2024/02/13 05:13:38;;;;;;;1.83;0.30;;;3.70;99.90;;;;;;5076740;23;20607;-93
2024/02/13 05:15:40;;;;;;;5.47;1.27;;;3.60;99.90;;;;;;5049069;23;20150;-92
2024/02/13 05:17:48;;;;;;;7.23;0.40;;;3.60;99.90;;;;;;5075755;23;20184;-92
2024/02/13 05:19:53;;;;;;;9.80;0.83;;;3.60;99.90;;;;;;5047510;23;20481;-95
2024/02/13 05:21:58;;;;;;;2.07;0.60;;;3.70;99.90;;;;;;5051684;23;20485;-93
2024/02/13 05:24:03;;;;;;;1.20;0.63;;;3.60;99.90;;;;;;5048162;23;20202;-93
2024/02/13 05:26:11;;;;;;;0.77;0.40;;;3.60;99.90;;;;;;5075435;23;20157;-93
2024/02/13 05:28:25;;;;;;;2.10;0.63;;;3.60;99.90;;;;;;5074177;23;20204;-93
2024/02/13 05:30:29;;;;;;;9.47;0.43;;;3.60;99.90;;;;;;5072252;23;20153;-92
2024/02/13 05:32:31;;;;;;;1.03;0.73;;;3.60;99.90;;;;;;5071310;23;20197;-92
2024/02/13 05:34:35;;;;;;;2.53;0.53;;;3.60;99.90;;;;;;5071900;23;20236;-94
2024/02/13 05:36:37;;;;;;;2.83;0.60;;;3.60;99.90;;;;;;5026409;23;20163;-93
2024/02/13 05:38:47;;;;;;;1.17;0.53;;;3.60;99.90;;;;;;5050857;23;20260;-93
2024/02/13 05:40:52;;;;;;;0.87;0.57;;;3.60;99.90;;;;;;5046483;23;20154;-93
2024/02/13 05:42:54;;;;;;;0.90;0.40;;;3.60;99.90;;;;;;5049962;23;20154;-94
2024/02/13 05:44:57;;;;;;;1.20;0.67;;;3.50;99.90;;;;;;5073140;23;20164;-94
2024/02/13 05:47:19;;;;;;;0.60;0.50;;;3.60;99.90;;;;;;5068630;23;20199;-93
2024/02/13 05:49:20;;;;;;;2.07;0.63;;;3.60;99.90;;;;;;5050361;23;20142;-94
2024/02/13 05:51:22;;;;;;;2.27;0.67;;;3.60;99.90;;;;;;5052140;23;20253;-93
2024/02/13 05:53:28;;;;;;;1.80;0.43;;;3.60;99.90;;;;;;5072704;23;20617;-94
2024/02/13 05:55:32;;;;;;;8.00;0.60;;;3.60;99.90;;;;;;5050251;23;20157;-93
2024/02/13 05:57:37;;;;;;;0.47;0.30;;;3.60;99.90;;;;;;5075035;23;20181;-92
2024/02/13 05:59:40;;;;;;;5.93;0.80;;;3.60;99.90;;;;;;5097021;23;20156;-93
2024/02/13 06:01:42;;;;;;;3.77;1.03;;;3.60;99.90;;;;;;5048535;23;20171;-93
2024/02/13 06:03:44;;;;;;;0.10;0.10;;;3.70;99.90;;;;;;5074878;23;20134;-91
2024/02/13 06:05:47;;;;;;;0.23;0.23;;;3.60;99.90;;;;;;5049242;23;20154;-93
2024/02/13 06:07:53;;;;;;;1.10;0.73;;;3.70;99.90;;;;;;5053971;23;20166;-94
2024/02/13 06:09:57;;;;;;;0.80;0.40;;;3.70;99.90;;;;;;5079046;23;20137;-92
2024/02/13 06:11:58;;;;;;;0.97;0.60;;;3.70;99.90;;;;;;5057213;23;20210;-92
2024/02/13 06:14:07;;;;;;;0.67;0.23;;;3.80;99.90;;;;;;5054807;23;20253;-94
2024/02/13 06:16:20;;;;;;;2.57;0.87;;;3.80;99.90;;;;;;5079166;23;20145;-94
2024/02/13 06:18:38;;;;;;;5.07;0.70;;;3.70;99.90;;;;;;5079564;23;20173;-93
2024/02/13 06:20:44;;;;;;;0.87;0.50;;;3.80;99.90;;;;;;5054853;23;20142;-93
2024/02/13 06:22:47;;;;;;;3.97;0.50;;;3.80;99.90;;;;;;5056330;23;20253;-93
2024/02/13 06:24:52;;;;;;;0.93;0.73;;;3.70;99.90;;;;;;5054392;23;20169;-93
2024/02/13 06:26:54;;;;;;;1.53;0.70;;;3.80;99.90;;;;;;5050071;23;20158;-93
2024/02/13 06:28:56;;;;;;;1.37;0.70;;;3.80;99.90;;;;;;5057260;23;20186;-92
2024/02/13 06:31:14;;;;;;;5.07;1.13;;;3.80;99.90;;;;;;5076856;23;20173;-95
2024/02/13 06:33:55;;;;;;;0.50;0.50;;;3.80;99.90;;;;;;5049803;23;20154;-96
2024/02/13 06:36:10;;;;;;;6.40;1.13;;;3.70;99.90;;;;;;5053060;23;20154;-94
2024/02/13 06:38:17;;;;;;;1.70;0.83;;;3.70;99.90;;;;;;5048216;23;20252;-94
2024/02/13 06:40:42;;;;;;;0.90;0.43;;;3.70;99.90;;;;;;5053903;23;20162;-96
2024/02/13 06:42:44;;;;;;;1.63;0.50;;;3.70;99.90;;;;;;5049068;23;20162;-93
2024/02/13 06:44:50;;;;;;;3.73;1.27;;;3.70;99.90;;;;;;5049642;23;20190;-95
2024/02/13 06:46:51;;;;;;;1.13;0.57;;;3.70;99.90;;;;;;5058937;23;20157;-94
2024/02/13 06:49:08;;;;;;;2.17;0.70;;;3.70;99.90;;;;;;5073171;23;20181;-93
2024/02/13 06:51:35;;;;;;;1.70;1.10;;;3.60;99.90;;;;;;5049507;23;20747;-96
2024/02/13 06:54:19;;;;;;;2.17;1.10;;;3.70;99.90;;;;;;5070931;23;20166;-95
2024/02/13 06:56:42;;;;;;;6.70;1.03;;;3.70;99.90;;;;;;5071676;23;20157;-96
2024/02/13 06:59:07;;;;;;;5.40;0.93;;;3.70;99.90;;;;;;5048031;23;20181;-95
2024/02/13 07:01:14;;;;;;;3.87;1.10;;;3.60;99.90;;;;;;5048974;23;20165;-94
2024/02/13 07:03:23;;;;;;;1.33;0.70;;;3.60;99.90;;;;;;5047648;23;20150;-96
2024/02/13 07:05:50;;;;;;;1.77;0.90;;;3.60;99.90;;;;;;5046961;23;20178;-94
2024/02/13 07:07:54;;;;;;;2.57;1.47;;;3.60;99.90;;;;;;5048859;23;20245;-93
2024/02/13 07:10:06;;;;;;;5.23;1.40;;;3.60;99.90;;;;;;5050012;23;20615;-95
2024/02/13 07:12:10;;;;;;;4.77;1.33;;;3.70;99.90;;;;;;5047442;23;20194;-94
2024/02/13 07:14:17;;;;;;;1.13;0.60;;;3.70;99.90;;;;;;5025077;23;20155;-94
2024/02/13 07:16:29;;;;;;;5.30;1.00;;;3.70;99.90;;;;;;5048942;23;20185;-95
2024/02/13 07:18:34;;;;;;;2.40;1.00;;;3.70;99.90;;;;;;5072287;23;20177;-96
2024/02/13 07:20:40;;;;;;;2.77;0.73;;;3.70;99.90;;;;;;5048921;23;20590;-94
2024/02/13 07:22:49;;;;;;;1.87;0.77;;;3.80;99.90;;;;;;5072233;23;20201;-95
2024/02/13 07:25:09;;;;;;;3.23;0.80;;;3.80;99.90;;;;;;5050382;23;20158;-93
2024/02/13 07:27:35;;;;;;;1.37;1.10;;;4.00;99.90;;;;;;5072315;23;20153;-96
2024/02/13 07:29:47;;;;;;;1.37;0.77;;;4.00;99.90;;;;;;5072575;23;20164;-94
2024/02/13 07:31:57;;;;;;;2.67;1.10;;;4.00;99.90;;;;;;5048697;23;20217;-94
2024/02/13 07:34:08;;;;;;;2.37;0.97;;;4.10;99.90;;;;;;5073217;23;20181;-95
2024/02/13 07:36:29;;;;;;;5.37;1.67;;;4.10;99.90;;;;;;5072303;23;20201;-94
2024/02/13 07:39:00;;;;;;;1.83;0.70;;;4.20;99.90;;;;;;5071591;23;20177;-94
2024/02/13 07:41:15;;;;;;;3.17;1.00;;;4.20;99.90;;;;;;5027734;23;20602;-96
2024/02/13 07:43:32;;;;;;;1.77;0.80;;;4.20;99.90;;;;;;5073742;23;20235;-95
2024/02/13 07:45:43;;;;;;;2.00;0.73;;;4.20;99.90;;;;;;5030842;23;20158;-96
2024/02/13 07:48:10;;;;;;;7.07;1.20;;;4.30;99.90;;;;;;5048776;23;20197;-94
2024/02/13 07:50:26;;;;;;;2.13;1.40;;;4.30;99.90;;;;;;5071615;23;20517;-94
2024/02/13 07:52:44;;;;;;;2.97;1.23;;;4.30;99.90;;;;;;5049236;23;20197;-94
2024/02/13 07:55:09;;;;;;;4.33;1.30;;;4.40;99.90;;;;;;5049393;23;20162;-96
2024/02/13 07:57:50;;;;;;;8.67;3.17;;;4.60;99.90;;;;;;5071448;23;20169;-94
2024/02/13 07:59:57;;;;;;;2.77;0.90;;;4.60;99.90;;;;;;5049808;23;20190;-94
2024/02/13 08:02:22;;;;;;;1.47;0.80;;;4.60;99.90;;;;;;5074999;23;20152;-96
2024/02/13 08:04:56;;;;;;;7.90;0.70;;;4.60;99.90;;;;;;5072516;23;20157;-95
2024/02/13 08:07:28;;;;;;;2.10;0.90;;;4.50;99.90;;;;;;5051030;23;20150;-94
2024/02/13 08:09:32;;;;;;;8.87;1.33;;;4.60;99.90;;;;;;5052068;23;20621;-94
2024/02/13 08:11:52;;;;;;;4.40;1.03;;;4.80;99.90;;;;;;5070791;23;20288;-96
2024/02/13 08:14:30;;;;;;;6.67;0.80;;;4.90;99.90;;;;;;5048284;23;20237;-93
2024/02/13 08:16:44;;;;;;;0.93;0.50;;;5.00;99.90;;;;;;5071902;23;20164;-93
2024/02/13 08:19:19;;;;;;;1.80;0.70;;;5.30;99.90;;;;;;5053849;23;20246;-96
2024/02/13 08:24:45;;;;;;;2.27;0.67;;;5.50;99.90;;;;;;5049586;23;20178;-94
2024/02/13 08:27:42;;;;;;;1.83;0.80;;;5.90;99.90;;;;;;5024611;23;20162;-94
2024/02/13 08:30:18;;;;;;;1.53;0.90;;;6.30;99.90;;;;;;4999519;23;20159;-96
2024/02/13 08:33:00;;;;;;;;;;;;;;;;;;;;;
2024/02/13 08:40:12;;;;;;;;;;;;;;;;;;;;;
2024/02/13 08:42:40;;;;;;;1.60;0.80;;;6.70;99.90;;;;;;5098339;23;20663;-94
2024/02/13 08:45:04;;;;;;;2.20;0.85;;;6.70;99.90;;;;;;5065291;23;20244;-95
2024/02/13 08:54:36;;;;;;;3.90;1.30;;;7.00;99.90;;;;;;5068104;23;20196;-96
2024/02/13 08:57:04;;;;;;;2.53;1.05;;;7.10;99.90;;;;;;5070525;23;20164;-94
2024/02/13 08:59:55;;;;;;;;;;;;;;;;;;;;;
2024/02/13 09:02:37;;;;;;;;;;;;;;;;;;;;;
2024/02/13 09:05:56;;;;;;;;;;;;;;;;;;;;;
2024/02/13 09:09:03;;;;;;;2.75;0.60;;;6.80;99.90;;;;;;4959818;23;20252;-94
2024/02/13 09:11:45;;;;;;;1.77;0.73;;;7.10;99.90;;;;;;4974632;23;20164;-94
2024/02/13 09:17:10;;;;;;;0.73;0.43;;;7.80;99.90;;;;;;4950501;23;20165;-94
2024/02/13 09:19:43;;;;;;;3.58;0.80;;;7.90;99.90;;;;;;4983853;23;20191;-93
2024/02/13 09:25:48;;;;;;;1.35;0.55;;;7.80;99.90;;;;;;4929714;24;20173;-95
2024/02/13 09:31:56;;;;;;;4.00;1.70;;;7.70;99.90;;;;;;4967381;23;20203;-94
2024/02/13 09:47:39;;;;;;;0.80;0.50;;;8.60;99.90;;;;;;4920036;24;20190;-93
2024/02/13 09:56:55;;;;;;;;;;;;;;;;;;;;;
2024/02/13 10:00:07;;;;;;;;;;;;;;;;;;;;;
2024/02/13 10:03:12;;;;;;;1.85;0.68;;;8.50;99.90;;;;;;5039569;23;20157;-94
2024/02/13 10:05:33;;;;;;;1.60;0.55;;;8.30;99.90;;;;;;5067328;23;20164;-93
2024/02/13 10:08:30;;;;;;;8.45;1.02;;;8.10;99.90;;;;;;5068483;23;20204;-94
2024/02/13 10:19:09;;;;;;;8.75;0.80;;;8.20;99.90;;;;;;5005258;23;20183;-96
2024/02/13 10:21:53;;;;;;;;;;;;;;;;;;;;;
2024/02/13 10:25:05;;;;;;;;;;;;;;;;;;;;;
2024/02/13 10:28:05;;;;;;;;;;;;;;;;;;;;;
2024/02/13 10:30:57;;;;;;;4.88;0.70;;;8.70;99.90;;;;;;5074553;23;20201;-93
2024/02/13 10:34:34;;;;;;;;;;;;;;;;;;;;;
2024/02/13 10:37:52;;;;;;;3.25;0.77;;;9.20;99.90;;;;;;4933455;24;20165;-95
2024/02/13 10:41:21;;;;;;;;;;;;;;;;;;;;;
2024/02/13 10:44:06;;;;;;;4.15;0.50;;;9.00;99.90;;;;;;4930926;24;20222;-94
2024/02/13 10:50:00;;;;;;;2.03;0.80;;;9.20;99.90;;;;;;5043638;23;20164;-96
2024/02/13 10:52:54;;;;;;;;;;;;;;;;;;;;;
2024/02/13 10:55:13;;;;;;;0.98;0.40;;;9.40;99.90;;;;;;5073886;23;20161;-95
2024/02/13 10:57:47;;;;;;;;;;;;;;;;;;;;;
2024/02/13 11:00:28;;;;;;;1.48;0.63;;;9.50;99.90;;;;;;5076251;23;20476;-96
2024/02/13 11:06:52;;;;;;;0.65;0.40;;;9.70;99.90;;;;;;5044133;23;20176;-95
2024/02/13 11:13:02;;;;;;;0.85;0.55;;;9.70;99.90;;;;;;5076957;23;20240;-94
2024/02/13 11:15:26;;;;;;;1.10;0.35;;;9.70;99.90;;;;;;4954963;23;20161;-95
2024/02/13 11:18:23;;;;;;;1.10;0.55;;;9.50;99.90;;;;;;5000745;23;20173;-94
2024/02/13 11:20:55;;;;;;;0.32;0.20;;;9.40;99.90;;;;;;5074129;23;20162;-96
2024/02/13 11:23:17;;;;;;;;;;;;;;;;;;;;;
2024/02/13 11:25:38;;;;;;;2.53;0.40;;;9.40;99.90;;;;;;5075332;23;20154;-95
2024/02/13 11:27:47;;;;;;;2.25;0.73;;;9.70;99.90;;;;;;5050330;23;20178;-94
2024/02/13 11:36:48;;;;;;;1.10;0.32;;;10.30;99.90;;;;;;5075592;23;20186;-96
2024/02/13 11:39:27;;;;;;;2.50;0.55;;;10.10;99.90;;;;;;5074850;23;20161;-93
2024/02/13 11:42:27;;;;;;;6.22;1.10;;;10.00;99.90;;;;;;5074234;23;20181;-95
2024/02/13 11:47:48;;;;;;;;;;;;;;;;;;;;;
2024/02/13 11:50:08;;;;;;;3.42;1.10;;;10.00;99.90;;;;;;5062292;23;20165;-96
2024/02/13 11:52:44;;;;;;;2.28;0.60;;;10.10;99.90;;;;;;5050382;23;20264;-94
2024/02/13 11:55:29;;;;;;;1.25;0.73;;;9.90;99.90;;;;;;5046720;23;20174;-95
2024/02/13 11:58:32;;;;;;;4.90;1.05;;;10.00;99.90;;;;;;5094320;23;20173;-94
2024/02/13 12:01:18;;;;;;;2.10;0.70;;;10.30;99.90;;;;;;5075698;23;20157;-96
2024/02/13 12:03:21;;;;;;;1.13;0.68;;;10.50;99.90;;;;;;5050212;23;20203;-95
2024/02/13 12:05:50;;;;;;;7.03;1.27;;;10.80;99.90;;;;;;5051705;23;20154;-96
2024/02/13 12:07:56;;;;;;;3.90;1.38;;;10.40;99.90;;;;;;5050347;23;20181;-96
2024/02/13 12:10:05;;;;;;;5.60;1.25;;;10.40;99.90;;;;;;5050151;23;20158;-94
2024/02/13 12:12:32;;;;;;;6.03;1.08;;;10.70;99.90;;;;;;5050750;23;20234;-94
2024/02/13 12:14:42;;;;;;;1.25;0.70;;;10.90;99.90;;;;;;5048213;23;20489;-93
2024/02/13 12:16:55;;;;;;;4.10;1.20;;;10.80;99.90;;;;;;5049093;23;20197;-95
2024/02/13 12:22:34;;;;;;;1.20;0.65;;;10.40;99.90;;;;;;5025883;23;20169;-94
2024/02/13 12:24:46;;;;;;;1.38;0.60;;;10.30;99.90;;;;;;5038344;23;20164;-93
2024/02/13 12:27:15;;;;;;;;;;;;;;;;;;;;;
2024/02/13 12:29:25;;;;;;;0.70;0.60;;;10.00;99.90;;;;;;5073808;23;20161;-94
2024/02/13 12:31:31;;;;;;;4.55;1.55;;;9.90;99.90;;;;;;5047023;23;20190;-95
2024/02/13 12:33:43;;;;;;;2.83;1.27;;;10.10;99.90;;;;;;5050559;23;20240;-95
2024/02/13 12:35:50;;;;;;;2.55;1.13;;;10.10;99.90;;;;;;5049872;23;20673;-94
2024/02/13 12:38:08;;;;;;;3.30;0.95;;;10.30;99.90;;;;;;5050148;23;20181;-94
2024/02/13 12:40:18;;;;;;;4.40;1.52;;;10.70;99.90;;;;;;5047477;23;20162;-95
2024/02/13 12:42:40;;;;;;;1.95;1.00;;;10.90;99.90;;;;;;5047962;23;20165;-95
2024/02/13 12:45:13;;;;;;;5.55;1.70;;;11.40;99.90;;;;;;5028643;23;20162;-95
2024/02/13 12:47:55;;;;;;;;;;;;;;;;;;;;;
2024/02/13 12:50:36;;;;;;;0.77;0.30;;;11.00;99.90;;;;;;5070948;23;20161;-94
2024/02/13 12:53:45;;;;;;;4.75;1.08;;;10.90;99.90;;;;;;5073257;23;20177;-96
2024/02/13 12:59:46;;;;;;;4.43;1.27;;;10.50;99.90;;;;;;5027303;23;20178;-95
2024/02/13 13:03:10;;;;;;;2.40;0.80;;;10.60;99.90;;;;;;5044768;23;20185;-96
2024/02/13 13:05:41;;;;;;;0.43;0.22;;;10.70;99.90;;;;;;5067598;23;20166;-95
2024/02/13 13:08:05;;;;;;;0.88;0.40;;;10.60;99.90;;;;;;5070083;23;20208;-95
2024/02/13 13:11:23;;;;;;;;;;;;;;;;;;;;;
2024/02/13 13:14:00;;;;;;;0.88;0.40;;;10.80;99.90;;;;;;4974923;23;20514;-93
2024/02/13 13:16:40;;;;;;;1.08;0.30;;;10.60;99.90;;;;;;5000827;23;20304;-95
2024/02/13 13:19:35;;;;;;;1.75;0.82;;;10.40;99.90;;;;;;4979716;23;20548;-93
2024/02/13 13:22:29;;;;;;;1.05;0.63;;;10.60;99.90;;;;;;4984312;23;20169;-95
2024/02/13 13:24:56;;;;;;;1.83;0.70;;;10.60;99.90;;;;;;5014445;23;20185;-94
2024/02/13 13:27:35;;;;;;;4.32;0.70;;;10.50;99.90;;;;;;5049619;23;20257;-95
2024/02/13 13:30:15;;;;;;;1.02;0.38;;;10.60;99.90;;;;;;5049497;23;20162;-95
2024/02/13 13:32:52;;;;;;;5.57;1.13;;;10.50;99.90;;;;;;5045953;23;20200;-93
2024/02/13 13:35:25;;;;;;;1.70;0.45;;;10.70;99.90;;;;;;5075549;23;20194;-95
2024/02/13 13:41:03;;;;;;;1.00;0.70;;;10.60;99.90;;;;;;5059889;23;20540;-96
2024/02/13 13:43:46;;;;;;;4.88;0.80;;;10.50;99.90;;;;;;5073714;23;20154;-96
2024/02/13 13:46:44;;;;;;;4.00;0.57;;;10.40;99.90;;;;;;5072015;23;20185;-95